American Lake, Washington
Current Conditions -  °F | °C
As of 4:58 PM on Thursday 18 Dec 2014 (Local Time) from KGRF Reporting Station
Drizzle Drizzle  
Wind Chill: 45°   Ceiling: 5500
Heat Index: 48°   Visibility: 10mi
Dew Point: 48°   Wind: 6mph
Humidity: 99%   Direction: 100°E
Pressure: 29.76"   Gusts: NA
Location:  47.1451°N, 122.578°W
Report Text: KGRF 190058Z AUTO 10005KT 10SM DZ OVC055 09/09 A2976 RMK AO2 RAE00DZB00 SLP083 P0000 T00890088 $
Loading
Personal Weather Stations






























Interactive Weather Map New forecast layout! Learn more

10-Day Weather Forecast

Advertisements
Track Severe Weather on mobile